createdAt,value
2022-12-21T00:00:01.973Z,1008.74
2022-12-21T00:01:01.784Z,1008.79
2022-12-21T00:02:01.857Z,1008.75
2022-12-21T00:03:01.780Z,1008.75
2022-12-21T00:04:01.695Z,1008.73
2022-12-21T00:05:01.743Z,1008.68
2022-12-21T00:06:01.685Z,1008.69
2022-12-21T00:07:01.577Z,1008.68
2022-12-21T00:08:01.558Z,1008.64
2022-12-21T00:09:01.519Z,1008.65
2022-12-21T00:10:01.475Z,1008.63
2022-12-21T00:11:01.432Z,1008.61
2022-12-21T00:12:01.467Z,1008.56
2022-12-21T00:13:01.359Z,1008.56
2022-12-21T00:14:01.344Z,1008.56
2022-12-21T00:15:01.297Z,1008.56
2022-12-21T00:16:01.273Z,1008.57
2022-12-21T00:17:01.309Z,1008.57
2022-12-21T00:18:01.253Z,1008.51
2022-12-21T00:19:01.162Z,1008.53
2022-12-21T00:20:01.188Z,1008.51
2022-12-21T00:21:01.086Z,1008.50
2022-12-21T00:22:01.054Z,1008.50
2022-12-21T00:23:01.024Z,1008.52
2022-12-21T00:24:01.047Z,1008.48
2022-12-21T00:25:01.006Z,1008.46
2022-12-21T00:26:00.916Z,1008.47
2022-12-21T00:27:00.876Z,1008.44
2022-12-21T00:28:00.847Z,1008.43
2022-12-21T00:29:00.811Z,1008.45
2022-12-21T00:30:00.847Z,1008.45
2022-12-21T00:31:00.814Z,1008.42
2022-12-21T00:32:00.714Z,1008.46
2022-12-21T00:33:00.663Z,1008.44
2022-12-21T00:34:00.640Z,1008.49
2022-12-21T00:35:00.600Z,1008.47
2022-12-21T00:36:00.551Z,1008.43
2022-12-21T00:37:00.614Z,1008.46
2022-12-21T00:38:00.492Z,1008.44
2022-12-21T00:39:00.470Z,1008.45
2022-12-21T00:40:00.429Z,1008.45
2022-12-21T00:41:00.405Z,1008.43
2022-12-21T00:42:00.350Z,1008.47
2022-12-21T00:43:00.390Z,1008.40
2022-12-21T00:44:00.293Z,1008.39
2022-12-21T00:45:00.246Z,1008.32
2022-12-21T00:46:00.283Z,1008.32
2022-12-21T00:47:00.173Z,1008.36
2022-12-21T00:48:00.168Z,1008.31
2022-12-21T00:49:00.262Z,1008.32
2022-12-21T00:50:00.098Z,1008.26
2022-12-21T00:51:00.034Z,1008.26
2022-12-21T00:52:00.015Z,1008.33
2022-12-21T00:52:59.959Z,1008.29
2022-12-21T00:53:59.932Z,1008.28
2022-12-21T00:54:59.981Z,1008.23
2022-12-21T00:55:59.865Z,1008.23
2022-12-21T00:56:59.824Z,1008.23
2022-12-21T00:57:59.791Z,1008.18
2022-12-21T00:58:59.759Z,1008.23
2022-12-21T00:59:59.728Z,1008.22
2022-12-21T01:00:59.770Z,1008.24
2022-12-21T01:01:59.817Z,1008.20
2022-12-21T01:02:59.684Z,1008.23
2022-12-21T01:03:59.699Z,1008.24
2022-12-21T01:04:59.544Z,1008.26
2022-12-21T01:05:59.508Z,1008.28
2022-12-21T01:06:59.543Z,1008.27
2022-12-21T01:07:59.464Z,1008.24
2022-12-21T01:08:59.412Z,1008.31
2022-12-21T01:09:59.368Z,1008.27
2022-12-21T01:10:59.340Z,1008.27
2022-12-21T01:11:59.303Z,1008.26
2022-12-21T01:12:59.321Z,1008.27
2022-12-21T01:13:59.263Z,1008.28
2022-12-21T01:14:59.195Z,1008.25
2022-12-21T01:15:59.211Z,1008.29
2022-12-21T01:16:59.148Z,1008.26
2022-12-21T01:17:59.099Z,1008.27
2022-12-21T01:18:59.119Z,1008.25
2022-12-21T01:19:59.016Z,1008.25
2022-12-21T01:20:59.679Z,1008.27
2022-12-21T01:21:58.950Z,1008.28
2022-12-21T01:22:58.918Z,1008.28
2022-12-21T01:23:58.933Z,1008.27
2022-12-21T01:24:58.902Z,1008.30
2022-12-21T01:25:58.806Z,1008.27
2022-12-21T01:26:58.771Z,1008.26
2022-12-21T01:27:58.735Z,1008.24
2022-12-21T01:28:58.734Z,1008.27
2022-12-21T01:29:58.683Z,1008.25
2022-12-21T01:30:58.727Z,1008.20
2022-12-21T01:31:58.624Z,1008.20
2022-12-21T01:32:58.555Z,1008.22
2022-12-21T01:33:58.521Z,1008.21
2022-12-21T01:34:58.498Z,1008.19
2022-12-21T01:35:58.469Z,1008.19
2022-12-21T01:36:58.489Z,1008.19
2022-12-21T01:37:58.393Z,1008.18
2022-12-21T01:38:58.350Z,1008.20
2022-12-21T01:39:58.323Z,1008.21
2022-12-21T01:40:58.285Z,1008.22
2022-12-21T01:41:58.243Z,1008.21
2022-12-21T01:42:58.265Z,1008.17
2022-12-21T01:43:58.265Z,1008.19
2022-12-21T01:44:58.202Z,1008.17
2022-12-21T01:45:58.143Z,1008.16
2022-12-21T01:46:58.096Z,1008.16
2022-12-21T01:47:58.035Z,1008.21
2022-12-21T01:48:58.073Z,1008.22
2022-12-21T01:49:57.965Z,1008.17
2022-12-21T01:50:57.947Z,1008.22
2022-12-21T01:51:57.898Z,1008.19
2022-12-21T01:52:57.871Z,1008.19
2022-12-21T01:53:57.836Z,1008.16
2022-12-21T01:54:58.563Z,1008.17
2022-12-21T01:55:57.857Z,1008.13
2022-12-21T01:56:57.797Z,1008.16
2022-12-21T01:57:57.696Z,1008.17
2022-12-21T01:58:57.651Z,1008.22
2022-12-21T01:59:57.625Z,1008.19
2022-12-21T02:00:57.589Z,1008.17
2022-12-21T02:01:57.688Z,1008.20
2022-12-21T02:02:57.704Z,1008.19
2022-12-21T02:03:57.511Z,1008.15
2022-12-21T02:04:57.448Z,1008.18
2022-12-21T02:05:57.408Z,1008.13
2022-12-21T02:06:57.445Z,1008.12
2022-12-21T02:07:57.342Z,1008.12
2022-12-21T02:08:57.319Z,1008.11
2022-12-21T02:09:57.272Z,1008.09
2022-12-21T02:10:57.256Z,1008.14
2022-12-21T02:11:57.272Z,1008.08
2022-12-21T02:12:57.180Z,1008.14
2022-12-21T02:13:57.137Z,1008.08
2022-12-21T02:14:57.145Z,1008.11
2022-12-21T02:15:57.125Z,1008.07
2022-12-21T02:16:57.103Z,1008.11
2022-12-21T02:17:57.024Z,1008.07
2022-12-21T02:18:56.984Z,1008.07
2022-12-21T02:19:56.917Z,1008.07
2022-12-21T02:20:56.924Z,1008.05
2022-12-21T02:21:56.918Z,1008.06
2022-12-21T02:22:56.814Z,1008.02
2022-12-21T02:23:56.787Z,1008.00
2022-12-21T02:24:56.746Z,1008.02
2022-12-21T02:25:56.715Z,1008.02
2022-12-21T02:26:56.738Z,1008.02
2022-12-21T02:27:56.643Z,1008.03
2022-12-21T02:28:56.631Z,1008.02
2022-12-21T02:29:56.579Z,1008.03
2022-12-21T02:30:56.595Z,1008.03
2022-12-21T02:31:56.515Z,1008.02
2022-12-21T02:32:56.532Z,1008.01
2022-12-21T02:33:56.432Z,1007.98
2022-12-21T02:34:56.402Z,1007.97
2022-12-21T02:35:56.370Z,1007.99
2022-12-21T02:36:56.328Z,1007.94
2022-12-21T02:37:56.280Z,1007.90
2022-12-21T02:38:56.311Z,1007.93
2022-12-21T02:39:56.218Z,1007.92
2022-12-21T02:40:56.197Z,1007.94
2022-12-21T02:41:56.148Z,1007.92
2022-12-21T02:42:56.122Z,1007.94
2022-12-21T02:43:56.115Z,1007.86
2022-12-21T02:44:56.117Z,1007.85
2022-12-21T02:45:56.013Z,1007.86
2022-12-21T02:46:56.028Z,1007.87
2022-12-21T02:47:55.991Z,1007.80
2022-12-21T02:48:55.922Z,1007.79
2022-12-21T02:49:55.871Z,1007.80
2022-12-21T02:50:55.900Z,1007.77
2022-12-21T02:51:55.796Z,1007.69
2022-12-21T02:52:55.762Z,1007.76
2022-12-21T02:53:55.725Z,1007.72
2022-12-21T02:54:55.714Z,1007.73
2022-12-21T02:55:55.662Z,1007.74
2022-12-21T02:56:55.690Z,1007.77
2022-12-21T02:57:55.584Z,1007.77
2022-12-21T02:58:55.604Z,1007.78
2022-12-21T02:59:55.513Z,1007.73
2022-12-21T03:00:55.484Z,1007.79
2022-12-21T03:01:55.537Z,1007.79
2022-12-21T03:02:55.553Z,1007.81
2022-12-21T03:03:55.483Z,1007.81
2022-12-21T03:04:55.335Z,1007.79
2022-12-21T03:05:55.323Z,1007.79
2022-12-21T03:06:55.267Z,1007.80
2022-12-21T03:07:55.239Z,1007.87
2022-12-21T03:08:55.220Z,1007.79
2022-12-21T03:09:55.223Z,1007.78
2022-12-21T03:10:55.132Z,1007.83
2022-12-21T03:11:55.101Z,1007.79
2022-12-21T03:12:55.068Z,1007.80
2022-12-21T03:13:55.020Z,1007.80
2022-12-21T03:14:58.160Z,1007.82
2022-12-21T03:15:55.053Z,1007.80
2022-12-21T03:16:54.924Z,1007.81
2022-12-21T03:17:54.887Z,1007.79
2022-12-21T03:18:54.856Z,1007.81
2022-12-21T03:19:54.819Z,1007.78
2022-12-21T03:20:54.784Z,1007.78
2022-12-21T03:21:54.808Z,1007.78
2022-12-21T03:22:54.706Z,1007.71
2022-12-21T03:23:54.672Z,1007.74
2022-12-21T03:24:54.652Z,1007.75
2022-12-21T03:25:54.603Z,1007.77
2022-12-21T03:26:54.568Z,1007.79
2022-12-21T03:27:54.620Z,1007.73
2022-12-21T03:28:54.509Z,1007.79
2022-12-21T03:29:54.463Z,1007.73
2022-12-21T03:30:54.427Z,1007.74
2022-12-21T03:31:54.466Z,1007.73
2022-12-21T03:32:54.352Z,1007.76
2022-12-21T03:33:54.384Z,1007.74
2022-12-21T03:34:54.346Z,1007.74
2022-12-21T03:35:54.263Z,1007.70
2022-12-21T03:36:54.217Z,1007.68
2022-12-21T03:37:54.180Z,1007.73
2022-12-21T03:38:54.151Z,1007.72
2022-12-21T03:39:57.110Z,1007.71
2022-12-21T03:40:54.077Z,1007.71
2022-12-21T03:41:54.044Z,1007.67
2022-12-21T03:42:54.004Z,1007.70
2022-12-21T03:43:53.988Z,1007.74
2022-12-21T03:44:53.999Z,1007.68
2022-12-21T03:45:53.897Z,1007.68
2022-12-21T03:46:53.887Z,1007.68
2022-12-21T03:47:53.838Z,1007.64
2022-12-21T03:48:53.797Z,1007.62
2022-12-21T03:49:53.765Z,1007.59
2022-12-21T03:50:53.813Z,1007.59
2022-12-21T03:51:53.690Z,1007.58
2022-12-21T03:52:53.664Z,1007.62
2022-12-21T03:53:53.628Z,1007.62
2022-12-21T03:54:53.602Z,1007.63
2022-12-21T03:55:53.568Z,1007.66
2022-12-21T03:56:53.606Z,1007.58
2022-12-21T03:57:53.482Z,1007.59
2022-12-21T03:58:53.454Z,1007.59
2022-12-21T03:59:53.431Z,1007.61
2022-12-21T04:00:53.437Z,1007.58
2022-12-21T04:01:53.411Z,1007.56
2022-12-21T04:02:53.547Z,1007.57
2022-12-21T04:03:53.303Z,1007.56
2022-12-21T04:04:53.240Z,1007.50
2022-12-21T04:05:53.215Z,1007.56
2022-12-21T04:06:53.175Z,1007.54
2022-12-21T04:07:53.129Z,1007.59
2022-12-21T04:08:53.176Z,1007.55
2022-12-21T04:09:53.193Z,1007.55
2022-12-21T04:10:53.025Z,1007.52
2022-12-21T04:11:53.003Z,1007.49
2022-12-21T04:12:52.954Z,1007.48
2022-12-21T04:13:52.928Z,1007.50
2022-12-21T04:14:52.971Z,1007.47
2022-12-21T04:15:52.892Z,1007.46
2022-12-21T04:16:52.870Z,1007.45
2022-12-21T04:17:52.791Z,1007.44
2022-12-21T04:18:52.809Z,1007.47
2022-12-21T04:19:52.709Z,1007.45
2022-12-21T04:22:24.283Z,1007.44
2022-12-21T04:23:24.202Z,1007.43
2022-12-21T04:24:24.171Z,1007.45
2022-12-21T04:25:24.117Z,1007.45
2022-12-21T04:26:24.083Z,1007.48
2022-12-21T04:27:24.052Z,1007.48
2022-12-21T04:28:52.538Z,1007.51
2022-12-21T04:29:24.030Z,1007.52
2022-12-21T04:30:23.945Z,1007.46
2022-12-21T04:31:23.926Z,1007.49
2022-12-21T04:32:24.019Z,1007.44
2022-12-21T04:33:23.835Z,1007.47
2022-12-21T04:34:23.861Z,1007.43
2022-12-21T04:35:23.772Z,1007.39
2022-12-21T04:36:23.801Z,1007.41
2022-12-21T04:37:23.695Z,1007.43
2022-12-21T04:38:23.662Z,1007.43
2022-12-21T04:39:23.619Z,1007.38
2022-12-21T04:40:23.586Z,1007.41
2022-12-21T04:41:23.624Z,1007.45
2022-12-21T04:42:23.529Z,1007.42
2022-12-21T04:43:23.483Z,1007.44
2022-12-21T04:44:23.450Z,1007.42
2022-12-21T04:45:23.411Z,1007.40
2022-12-21T04:46:23.535Z,1007.41
2022-12-21T04:47:23.347Z,1007.39
2022-12-21T04:48:23.312Z,1007.39
2022-12-21T04:49:23.275Z,1007.40
2022-12-21T04:50:23.276Z,1007.37
2022-12-21T04:51:23.268Z,1007.40
2022-12-21T04:52:23.172Z,1007.37
2022-12-21T04:53:23.148Z,1007.40
2022-12-21T04:54:23.119Z,1007.40
2022-12-21T04:55:23.081Z,1007.43
2022-12-21T04:56:23.059Z,1007.41
2022-12-21T04:57:23.062Z,1007.38
2022-12-21T04:58:22.972Z,1007.39
2022-12-21T04:59:22.931Z,1007.39
2022-12-21T05:00:22.889Z,1007.41
2022-12-21T05:01:23.032Z,1007.39
2022-12-21T05:02:22.991Z,1007.40
2022-12-21T05:03:22.958Z,1007.39
2022-12-21T05:04:22.747Z,1007.42
2022-12-21T05:05:22.715Z,1007.41
2022-12-21T05:06:22.683Z,1007.43
2022-12-21T05:07:22.645Z,1007.42
2022-12-21T05:08:23.303Z,1007.43
2022-12-21T05:10:14.350Z,1007.40
2022-12-21T05:11:14.314Z,1007.42
2022-12-21T05:12:14.269Z,1007.41
2022-12-21T05:13:14.238Z,1007.41
2022-12-21T05:14:14.198Z,1007.42
2022-12-21T05:15:14.260Z,1007.39
2022-12-21T05:16:14.214Z,1007.40
2022-12-21T05:17:14.223Z,1007.38
2022-12-21T05:18:14.070Z,1007.40
2022-12-21T05:19:14.038Z,1007.39
2022-12-21T05:20:14.023Z,1007.39
2022-12-21T05:21:14.024Z,1007.42
2022-12-21T05:22:13.938Z,1007.38
2022-12-21T05:23:13.898Z,1007.40
2022-12-21T05:24:13.860Z,1007.36
2022-12-21T05:25:13.829Z,1007.32
2022-12-21T05:26:15.776Z,1007.36
2022-12-21T05:27:13.813Z,1007.40
2022-12-21T05:28:13.720Z,1007.37
2022-12-21T05:29:13.690Z,1007.34
2022-12-21T05:30:13.661Z,1007.36
2022-12-21T05:31:13.771Z,1007.36
2022-12-21T05:32:13.609Z,1007.36
2022-12-21T05:33:13.615Z,1007.37
2022-12-21T05:34:13.526Z,1007.32
2022-12-21T05:35:16.615Z,1007.39
2022-12-21T05:36:13.442Z,1007.37
2022-12-21T05:37:13.419Z,1007.34
2022-12-21T05:38:13.376Z,1007.36
2022-12-21T05:39:13.407Z,1007.40
2022-12-21T05:40:13.305Z,1007.39
2022-12-21T05:41:13.272Z,1007.40
2022-12-21T05:42:13.232Z,1007.36
2022-12-21T05:43:13.206Z,1007.35
2022-12-21T05:44:13.164Z,1007.33
2022-12-21T05:45:13.195Z,1007.34
2022-12-21T05:46:15.804Z,1007.34
2022-12-21T05:47:13.073Z,1007.37
2022-12-21T05:48:13.034Z,1007.37
2022-12-21T05:49:13.001Z,1007.38
2022-12-21T05:50:12.966Z,1007.39
2022-12-21T05:51:12.992Z,1007.37
2022-12-21T05:52:12.886Z,1007.38
2022-12-21T05:53:14.117Z,1007.43
2022-12-21T05:54:12.829Z,1007.39
2022-12-21T05:55:12.815Z,1007.41
2022-12-21T05:56:12.769Z,1007.45
2022-12-21T05:57:12.785Z,1007.44
2022-12-21T05:58:12.678Z,1007.44
2022-12-21T05:59:12.685Z,1007.44
2022-12-21T06:00:15.593Z,1007.45
2022-12-21T06:01:12.580Z,1007.44
2022-12-21T06:02:12.728Z,1007.42
2022-12-21T06:03:12.603Z,1007.46
2022-12-21T06:04:12.501Z,1007.45
2022-12-21T06:05:12.606Z,1007.45
2022-12-21T06:06:12.410Z,1007.44
2022-12-21T06:07:12.366Z,1007.45
2022-12-21T06:08:12.408Z,1007.40
2022-12-21T06:09:12.304Z,1007.43
2022-12-21T06:10:12.270Z,1007.46
2022-12-21T06:11:12.237Z,1007.45
2022-12-21T06:12:12.257Z,1007.43
2022-12-21T06:13:12.159Z,1007.49
2022-12-21T06:14:12.123Z,1007.48
2022-12-21T06:15:12.121Z,1007.46
2022-12-21T06:16:12.219Z,1007.44
2022-12-21T06:17:12.074Z,1007.43
2022-12-21T06:18:12.050Z,1007.38
2022-12-21T06:19:11.975Z,1007.44
2022-12-21T06:20:11.934Z,1007.40
2022-12-21T06:21:11.896Z,1007.42
2022-12-21T06:22:11.857Z,1007.44
2022-12-21T06:23:11.819Z,1007.47
2022-12-21T06:24:11.888Z,1007.45
2022-12-21T06:25:11.756Z,1007.50
2022-12-21T06:26:11.716Z,1007.52
2022-12-21T06:27:11.673Z,1007.47
2022-12-21T06:28:11.659Z,1007.43
2022-12-21T06:29:11.626Z,1007.44
2022-12-21T06:30:11.643Z,1007.47
2022-12-21T06:31:11.618Z,1007.48
2022-12-21T06:32:11.510Z,1007.50
2022-12-21T06:33:11.476Z,1007.48
2022-12-21T06:34:11.439Z,1007.50
2022-12-21T06:35:11.403Z,1007.53
2022-12-21T06:36:11.424Z,1007.52
2022-12-21T06:37:11.336Z,1007.51
2022-12-21T06:38:11.303Z,1007.53
2022-12-21T06:39:11.309Z,1007.51
2022-12-21T06:40:11.236Z,1007.50
2022-12-21T06:41:11.217Z,1007.46
2022-12-21T06:42:11.162Z,1007.45
2022-12-21T06:43:11.127Z,1007.47
2022-12-21T06:44:11.175Z,1007.45
2022-12-21T06:45:11.057Z,1007.44
2022-12-21T06:46:11.085Z,1007.43
2022-12-21T06:47:11.019Z,1007.46
2022-12-21T06:48:10.974Z,1007.47
2022-12-21T06:49:10.924Z,1007.46
2022-12-21T06:50:10.969Z,1007.44
2022-12-21T06:51:10.857Z,1007.40
2022-12-21T06:52:10.843Z,1007.42
2022-12-21T06:53:10.784Z,1007.41
2022-12-21T06:54:10.753Z,1007.42
2022-12-21T06:55:10.743Z,1007.41
2022-12-21T06:56:18.664Z,1007.36
2022-12-21T06:57:10.643Z,1007.41
2022-12-21T06:58:10.615Z,1007.46
2022-12-21T06:59:10.590Z,1007.44
2022-12-21T07:00:10.553Z,1007.46
2022-12-21T07:01:10.568Z,1007.45
2022-12-21T07:02:10.652Z,1007.44
2022-12-21T07:04:03.211Z,1007.48
2022-12-21T07:05:03.168Z,1007.51
2022-12-21T07:06:03.134Z,1007.50
2022-12-21T07:07:03.125Z,1007.49
2022-12-21T07:08:03.135Z,1007.49
2022-12-21T07:09:03.029Z,1007.48
2022-12-21T07:10:03.007Z,1007.50
2022-12-21T07:11:02.963Z,1007.51
2022-12-21T07:12:02.944Z,1007.48
2022-12-21T07:13:02.951Z,1007.53
2022-12-21T07:14:02.948Z,1007.47
2022-12-21T07:15:02.828Z,1007.53
2022-12-21T07:16:02.874Z,1007.52
2022-12-21T07:17:02.785Z,1007.50
2022-12-21T07:18:02.725Z,1007.50
2022-12-21T07:19:02.713Z,1007.49
2022-12-21T07:20:02.705Z,1007.51
2022-12-21T07:21:02.629Z,1007.55
2022-12-21T07:22:02.680Z,1007.54
2022-12-21T07:23:02.565Z,1007.55
2022-12-21T07:24:02.517Z,1007.58
2022-12-21T07:25:02.481Z,1007.62
2022-12-21T07:26:08.453Z,1007.61
2022-12-21T07:27:02.433Z,1007.60
2022-12-21T07:28:02.429Z,1007.61
2022-12-21T07:29:02.355Z,1007.58
2022-12-21T07:30:02.306Z,1007.63
2022-12-21T07:31:02.310Z,1007.61
2022-12-21T07:32:02.313Z,1007.64
2022-12-21T07:33:02.200Z,1007.61
2022-12-21T07:34:02.232Z,1007.66
2022-12-21T07:35:02.140Z,1007.65
2022-12-21T07:36:04.073Z,1007.62
2022-12-21T07:37:02.072Z,1007.65
2022-12-21T07:38:02.036Z,1007.65
2022-12-21T07:39:02.009Z,1007.66
2022-12-21T07:40:02.037Z,1007.62
2022-12-21T07:41:01.944Z,1007.64
2022-12-21T07:42:01.936Z,1007.62
2022-12-21T07:43:01.879Z,1007.58
2022-12-21T07:44:01.834Z,1007.60
2022-12-21T07:45:01.802Z,1007.61
2022-12-21T07:46:01.829Z,1007.62
2022-12-21T07:47:01.777Z,1007.62
2022-12-21T07:48:01.709Z,1007.65
2022-12-21T07:49:01.822Z,1007.64
2022-12-21T07:50:01.633Z,1007.69
2022-12-21T07:51:01.597Z,1007.67
2022-12-21T07:52:01.563Z,1007.71
2022-12-21T07:53:01.528Z,1007.70
2022-12-21T07:54:01.521Z,1007.69
2022-12-21T07:55:01.517Z,1007.76
2022-12-21T07:56:01.450Z,1007.75
2022-12-21T07:57:01.385Z,1007.76
2022-12-21T07:58:01.370Z,1007.77
2022-12-21T07:59:01.339Z,1007.77
2022-12-21T08:00:01.297Z,1007.82
2022-12-21T08:01:05.685Z,1007.85
2022-12-21T08:02:01.279Z,1007.81
2022-12-21T08:03:01.380Z,1007.86
2022-12-21T08:04:01.179Z,1007.85
2022-12-21T08:05:01.129Z,1007.85
2022-12-21T08:06:01.130Z,1007.86
2022-12-21T08:07:01.056Z,1007.88
2022-12-21T08:08:01.009Z,1007.89
2022-12-21T08:09:01.743Z,1007.88
2022-12-21T08:10:00.954Z,1007.90
2022-12-21T08:11:00.929Z,1007.87
2022-12-21T08:12:01.089Z,1007.89
2022-12-21T08:13:00.847Z,1007.93
2022-12-21T08:14:00.885Z,1007.91
2022-12-21T08:15:00.786Z,1007.92
2022-12-21T08:16:00.818Z,1007.95
2022-12-21T08:17:00.707Z,1007.94
2022-12-21T08:18:06.604Z,1007.92
2022-12-21T08:19:00.690Z,1007.93
2022-12-21T08:20:00.648Z,1007.92
2022-12-21T08:21:00.575Z,1007.94
2022-12-21T08:22:00.552Z,1007.97
2022-12-21T08:23:00.521Z,1007.94
2022-12-21T08:24:00.556Z,1007.96
2022-12-21T08:25:00.435Z,1007.93
2022-12-21T08:26:00.406Z,1007.90
2022-12-21T08:27:00.391Z,1007.85
2022-12-21T08:28:00.339Z,1007.85
2022-12-21T08:29:01.673Z,1007.83
2022-12-21T08:30:00.306Z,1007.80
2022-12-21T08:31:00.302Z,1007.86
2022-12-21T08:32:00.265Z,1007.85
2022-12-21T08:33:00.171Z,1007.87
2022-12-21T08:34:00.149Z,1007.88
2022-12-21T08:35:00.185Z,1007.86
2022-12-21T08:36:00.101Z,1007.85
2022-12-21T08:37:00.043Z,1007.84
2022-12-21T08:38:00.002Z,1007.86
2022-12-21T08:39:09.369Z,1007.88
2022-12-21T08:39:59.929Z,1007.88
2022-12-21T08:40:59.951Z,1007.89
2022-12-21T08:41:59.884Z,1007.79
2022-12-21T08:42:59.828Z,1007.84
2022-12-21T08:43:59.807Z,1007.82
2022-12-21T08:44:59.768Z,1007.83
2022-12-21T08:45:59.786Z,1007.87
2022-12-21T08:46:59.753Z,1007.91
2022-12-21T08:47:59.668Z,1007.90
2022-12-21T08:48:59.639Z,1007.96
2022-12-21T08:49:59.595Z,1007.93
2022-12-21T08:50:59.562Z,1007.89
2022-12-21T08:51:59.530Z,1007.87
2022-12-21T08:52:59.569Z,1007.96
2022-12-21T08:53:59.477Z,1007.98
2022-12-21T08:54:59.427Z,1007.97
2022-12-21T08:55:59.395Z,1007.97
2022-12-21T08:56:59.377Z,1008.01
2022-12-21T08:57:59.342Z,1007.97
2022-12-21T08:58:59.360Z,1007.99
2022-12-21T08:59:59.262Z,1007.97
2022-12-21T09:00:59.306Z,1007.91
2022-12-21T09:01:59.432Z,1007.91
2022-12-21T09:02:59.340Z,1007.91
2022-12-21T09:03:59.137Z,1007.94
2022-12-21T09:04:59.170Z,1007.90
2022-12-21T09:06:05.813Z,1007.93
2022-12-21T09:06:59.043Z,1007.96
2022-12-21T09:07:58.993Z,1007.98
2022-12-21T09:08:59.002Z,1008.02
2022-12-21T09:09:58.963Z,1007.99
2022-12-21T09:10:58.953Z,1008.04
2022-12-21T09:11:58.859Z,1008.00
2022-12-21T09:12:58.858Z,1008.00
2022-12-21T09:13:58.868Z,1007.98
2022-12-21T09:14:58.771Z,1008.01
2022-12-21T09:15:58.827Z,1008.01
2022-12-21T09:16:58.770Z,1007.98
2022-12-21T09:17:58.690Z,1008.05
2022-12-21T09:18:58.700Z,1008.01
2022-12-21T09:19:58.600Z,1008.05
2022-12-21T09:20:58.588Z,1008.04
2022-12-21T09:21:58.544Z,1008.05
2022-12-21T09:22:58.515Z,1008.02
2022-12-21T09:23:58.521Z,1008.00
2022-12-21T09:24:58.436Z,1008.02
2022-12-21T09:25:58.423Z,1008.03
2022-12-21T09:26:58.372Z,1007.99
2022-12-21T09:27:58.334Z,1007.99
2022-12-21T09:28:58.367Z,1007.98
2022-12-21T09:29:58.266Z,1007.95
2022-12-21T09:30:58.256Z,1007.95
2022-12-21T09:31:58.280Z,1008.00
2022-12-21T09:32:58.173Z,1008.00
2022-12-21T09:33:58.137Z,1007.98
2022-12-21T09:34:58.159Z,1008.02
2022-12-21T09:35:58.070Z,1008.03
2022-12-21T09:37:24.995Z,1008.03
2022-12-21T09:37:58.008Z,1008.01
2022-12-21T09:38:58.001Z,1008.05
2022-12-21T09:39:57.948Z,1008.00
2022-12-21T09:40:57.964Z,1007.99
2022-12-21T09:41:57.878Z,1008.01
2022-12-21T09:43:02.696Z,1008.01
2022-12-21T09:43:57.839Z,1008.01
2022-12-21T09:44:57.776Z,1007.97
2022-12-21T09:45:57.789Z,1007.98
2022-12-21T09:46:57.777Z,1008.00
2022-12-21T09:47:57.681Z,1007.96
2022-12-21T09:48:57.681Z,1007.94
2022-12-21T09:49:57.636Z,1007.95
2022-12-21T09:50:57.598Z,1007.90
2022-12-21T09:51:57.621Z,1007.92
2022-12-21T09:52:57.569Z,1007.90
2022-12-21T09:53:57.538Z,1007.85
2022-12-21T09:54:57.528Z,1007.89
2022-12-21T09:55:57.503Z,1007.87
2022-12-21T09:56:57.513Z,1007.86
2022-12-21T09:57:57.366Z,1007.93
2022-12-21T09:58:57.376Z,1007.97
2022-12-21T09:59:57.287Z,1007.95
2022-12-21T10:00:57.340Z,1007.95
2022-12-21T10:01:57.481Z,1007.89
2022-12-21T10:02:57.311Z,1007.92
2022-12-21T10:03:57.135Z,1007.95
2022-12-21T10:05:14.507Z,1007.94
2022-12-21T10:05:57.099Z,1007.97
2022-12-21T10:06:57.449Z,1007.95
2022-12-21T10:07:59.259Z,1007.96
2022-12-21T10:08:56.976Z,1007.94
2022-12-21T10:09:56.967Z,1007.90
2022-12-21T10:10:56.903Z,1007.90
2022-12-21T10:11:56.899Z,1007.88
2022-12-21T10:12:56.936Z,1007.90
2022-12-21T10:14:00.581Z,1007.85
2022-12-21T10:14:56.806Z,1007.83
2022-12-21T10:15:56.757Z,1007.78
2022-12-21T10:17:22.084Z,1007.81
2022-12-21T10:17:57.009Z,1007.78
2022-12-21T10:18:56.655Z,1007.75
2022-12-21T10:19:56.635Z,1007.78
2022-12-21T10:20:56.626Z,1007.77
2022-12-21T10:21:56.571Z,1007.81
2022-12-21T10:22:56.512Z,1007.74
2022-12-21T10:23:57.283Z,1007.76
2022-12-21T10:24:56.498Z,1007.72
2022-12-21T10:25:56.430Z,1007.66
2022-12-21T10:26:56.393Z,1007.68
2022-12-21T10:27:56.385Z,1007.68
2022-12-21T10:28:56.340Z,1007.66
2022-12-21T10:29:56.360Z,1007.66
2022-12-21T10:30:56.310Z,1007.63
2022-12-21T10:31:56.261Z,1007.66
2022-12-21T10:32:56.227Z,1007.66
2022-12-21T10:33:56.220Z,1007.67
2022-12-21T10:34:56.127Z,1007.70
2022-12-21T10:35:56.773Z,1007.70
2022-12-21T10:36:56.082Z,1007.66
2022-12-21T10:37:56.046Z,1007.66
2022-12-21T10:38:56.054Z,1007.66
2022-12-21T10:39:55.964Z,1007.65
2022-12-21T10:40:55.960Z,1007.61
2022-12-21T10:41:55.918Z,1007.62
2022-12-21T10:42:55.960Z,1007.61
2022-12-21T10:43:55.838Z,1007.58
2022-12-21T10:44:55.993Z,1007.60
2022-12-21T10:45:55.863Z,1007.62
2022-12-21T10:46:55.727Z,1007.63
2022-12-21T10:47:56.403Z,1007.62
2022-12-21T10:48:56.328Z,1007.61
2022-12-21T10:49:55.633Z,1007.63
2022-12-21T10:50:55.678Z,1007.64
2022-12-21T10:51:55.560Z,1007.62
2022-12-21T10:52:55.545Z,1007.59
2022-12-21T10:53:55.507Z,1007.59
2022-12-21T10:54:55.539Z,1007.61
2022-12-21T10:55:55.427Z,1007.60
2022-12-21T10:56:56.278Z,1007.61
2022-12-21T10:57:55.409Z,1007.60
2022-12-21T10:58:55.385Z,1007.59
2022-12-21T10:59:58.279Z,1007.59
2022-12-21T11:00:55.278Z,1007.57
2022-12-21T11:01:55.860Z,1007.58
2022-12-21T11:02:59.950Z,1007.56
2022-12-21T11:03:55.242Z,1007.54
2022-12-21T11:04:55.149Z,1007.54
2022-12-21T11:05:55.145Z,1007.51
2022-12-21T11:06:55.081Z,1007.50
2022-12-21T11:07:59.365Z,1007.50
2022-12-21T11:08:55.091Z,1007.45
2022-12-21T11:10:14.901Z,1007.42
2022-12-21T11:10:55.430Z,1007.43
2022-12-21T11:11:54.930Z,1007.38
2022-12-21T11:12:54.873Z,1007.38
2022-12-21T11:13:56.363Z,1007.37
2022-12-21T11:14:54.874Z,1007.35
2022-12-21T11:16:04.193Z,1007.33
2022-12-21T11:16:54.771Z,1007.32
2022-12-21T11:17:54.742Z,1007.32
2022-12-21T11:18:54.702Z,1007.32
2022-12-21T11:19:54.688Z,1007.31
2022-12-21T11:20:54.672Z,1007.33
2022-12-21T11:21:54.614Z,1007.33
2022-12-21T11:22:59.179Z,1007.37
2022-12-21T11:23:54.521Z,1007.37
2022-12-21T11:24:54.544Z,1007.38
2022-12-21T11:25:54.460Z,1007.37
2022-12-21T11:26:54.475Z,1007.37
2022-12-21T11:27:54.387Z,1007.35
2022-12-21T11:28:54.354Z,1007.33
2022-12-21T11:29:54.336Z,1007.31
2022-12-21T11:30:55.042Z,1007.32
2022-12-21T11:31:54.283Z,1007.31
2022-12-21T11:32:54.314Z,1007.31
2022-12-21T11:33:54.234Z,1007.31
2022-12-21T11:34:54.190Z,1007.32
2022-12-21T11:35:54.165Z,1007.31
2022-12-21T11:36:54.100Z,1007.24
2022-12-21T11:37:54.065Z,1007.29
2022-12-21T11:38:54.087Z,1007.23
2022-12-21T11:39:54.026Z,1007.22
2022-12-21T11:40:53.993Z,1007.20
2022-12-21T11:41:53.951Z,1007.15
2022-12-21T11:42:53.933Z,1007.15
2022-12-21T11:43:53.921Z,1007.17
2022-12-21T11:44:53.868Z,1007.15
2022-12-21T11:46:14.404Z,1007.14
2022-12-21T11:46:53.892Z,1007.10
2022-12-21T11:47:53.760Z,1007.10
2022-12-21T11:48:58.329Z,1007.06
2022-12-21T11:49:53.791Z,1007.11
2022-12-21T11:50:53.637Z,1007.12
2022-12-21T11:51:53.635Z,1007.13
2022-12-21T11:52:53.610Z,1007.12
2022-12-21T11:53:53.538Z,1007.12
2022-12-21T11:54:53.502Z,1007.09
2022-12-21T11:55:53.565Z,1007.08
2022-12-21T11:56:53.445Z,1007.04
2022-12-21T11:57:53.429Z,1007.08
2022-12-21T11:58:53.432Z,1007.12
2022-12-21T11:59:59.474Z,1007.08
2022-12-21T12:01:01.091Z,1007.10
2022-12-21T12:01:53.426Z,1007.16
2022-12-21T12:02:53.288Z,1007.14
2022-12-21T12:03:53.296Z,1007.20
2022-12-21T12:04:53.268Z,1007.22
2022-12-21T12:05:53.164Z,1007.24
2022-12-21T12:06:55.929Z,1007.23
2022-12-21T12:07:53.127Z,1007.24